sensor_id;sensor_type;location;lat;lon;timestamp;temperature;humidity
47757;SHT35;22147;52.388;13.390;2023-07-20T00:01:17;16.00;91.91
47757;SHT35;22147;52.388;13.390;2023-07-20T00:03:47;15.97;91.92
47757;SHT35;22147;52.388;13.390;2023-07-20T00:06:26;15.92;91.97
47757;SHT35;22147;52.388;13.390;2023-07-20T00:08:56;15.94;92.04
47757;SHT35;22147;52.388;13.390;2023-07-20T00:11:27;15.90;92.09
47757;SHT35;22147;52.388;13.390;2023-07-20T00:13:56;15.87;92.13
47757;SHT35;22147;52.388;13.390;2023-07-20T00:16:24;15.85;92.17
47757;SHT35;22147;52.388;13.390;2023-07-20T00:18:53;15.87;92.23
47757;SHT35;22147;52.388;13.390;2023-07-20T00:21:21;15.85;92.25
47757;SHT35;22147;52.388;13.390;2023-07-20T00:23:49;15.84;92.29
47757;SHT35;22147;52.388;13.390;2023-07-20T00:26:18;15.85;92.27
47757;SHT35;22147;52.388;13.390;2023-07-20T00:28:48;15.81;92.23
47757;SHT35;22147;52.388;13.390;2023-07-20T00:31:18;15.77;92.26
47757;SHT35;22147;52.388;13.390;2023-07-20T00:33:46;15.78;92.32
47757;SHT35;22147;52.388;13.390;2023-07-20T00:36:14;15.79;92.28
47757;SHT35;22147;52.388;13.390;2023-07-20T00:38:43;15.75;92.25
47757;SHT35;22147;52.388;13.390;2023-07-20T00:41:11;15.74;92.25
47757;SHT35;22147;52.388;13.390;2023-07-20T00:43:43;15.74;92.32
47757;SHT35;22147;52.388;13.390;2023-07-20T00:46:14;15.71;92.24
47757;SHT35;22147;52.388;13.390;2023-07-20T00:48:44;15.70;92.25
47757;SHT35;22147;52.388;13.390;2023-07-20T00:51:15;15.67;92.34
47757;SHT35;22147;52.388;13.390;2023-07-20T00:53:46;15.67;92.35
47757;SHT35;22147;52.388;13.390;2023-07-20T00:56:17;15.64;92.39
47757;SHT35;22147;52.388;13.390;2023-07-20T00:58:47;15.63;92.39
47757;SHT35;22147;52.388;13.390;2023-07-20T01:01:17;15.64;92.48
47757;SHT35;22147;52.388;13.390;2023-07-20T01:03:48;15.64;92.43
47757;SHT35;22147;52.388;13.390;2023-07-20T01:06:35;15.63;92.46
47757;SHT35;22147;52.388;13.390;2023-07-20T01:09:33;15.57;92.47
47757;SHT35;22147;52.388;13.390;2023-07-20T01:12:30;15.57;92.52
47757;SHT35;22147;52.388;13.390;2023-07-20T01:15:03;15.55;92.55
47757;SHT35;22147;52.388;13.390;2023-07-20T01:17:35;15.54;92.58
47757;SHT35;22147;52.388;13.390;2023-07-20T01:20:15;15.51;92.55
47757;SHT35;22147;52.388;13.390;2023-07-20T01:29:41;15.50;92.59
47757;SHT35;22147;52.388;13.390;2023-07-20T01:32:17;15.46;92.45
47757;SHT35;22147;52.388;13.390;2023-07-20T01:34:53;15.46;92.48
47757;SHT35;22147;52.388;13.390;2023-07-20T01:37:27;15.44;92.36
47757;SHT35;22147;52.388;13.390;2023-07-20T01:40:00;15.44;92.35
47757;SHT35;22147;52.388;13.390;2023-07-20T01:42:31;15.46;92.37
47757;SHT35;22147;52.388;13.390;2023-07-20T01:45:01;15.42;92.37
47757;SHT35;22147;52.388;13.390;2023-07-20T01:47:32;15.39;92.34
47757;SHT35;22147;52.388;13.390;2023-07-20T01:50:02;15.36;92.34
47757;SHT35;22147;52.388;13.390;2023-07-20T01:52:32;15.36;92.39
47757;SHT35;22147;52.388;13.390;2023-07-20T01:55:03;15.34;92.49
47757;SHT35;22147;52.388;13.390;2023-07-20T01:57:34;15.32;92.45
47757;SHT35;22147;52.388;13.390;2023-07-20T02:00:05;15.30;92.53
47757;SHT35;22147;52.388;13.390;2023-07-20T02:02:36;15.30;92.56
47757;SHT35;22147;52.388;13.390;2023-07-20T02:05:07;15.32;92.61
47757;SHT35;22147;52.388;13.390;2023-07-20T02:07:35;15.33;92.65
47757;SHT35;22147;52.388;13.390;2023-07-20T02:10:04;15.32;92.65
47757;SHT35;22147;52.388;13.390;2023-07-20T02:12:32;15.29;92.72
47757;SHT35;22147;52.388;13.390;2023-07-20T02:15:02;15.25;92.72
47757;SHT35;22147;52.388;13.390;2023-07-20T02:17:32;15.20;92.71
47757;SHT35;22147;52.388;13.390;2023-07-20T02:20:00;15.18;92.74
47757;SHT35;22147;52.388;13.390;2023-07-20T02:22:29;15.13;92.75
47757;SHT35;22147;52.388;13.390;2023-07-20T02:24:57;15.10;92.76
47757;SHT35;22147;52.388;13.390;2023-07-20T02:27:25;15.07;92.81
47757;SHT35;22147;52.388;13.390;2023-07-20T02:29:54;14.99;92.82
47757;SHT35;22147;52.388;13.390;2023-07-20T02:32:22;14.95;92.85
47757;SHT35;22147;52.388;13.390;2023-07-20T02:34:51;14.91;92.92
47757;SHT35;22147;52.388;13.390;2023-07-20T02:37:19;14.92;92.91
47757;SHT35;22147;52.388;13.390;2023-07-20T02:39:48;14.85;92.92
47757;SHT35;22147;52.388;13.390;2023-07-20T02:42:16;14.82;92.92
47757;SHT35;22147;52.388;13.390;2023-07-20T02:44:45;14.81;92.94
47757;SHT35;22147;52.388;13.390;2023-07-20T02:47:13;14.78;92.95
47757;SHT35;22147;52.388;13.390;2023-07-20T02:49:41;14.75;92.96
47757;SHT35;22147;52.388;13.390;2023-07-20T02:52:10;14.71;92.98
47757;SHT35;22147;52.388;13.390;2023-07-20T02:54:40;14.65;92.93
47757;SHT35;22147;52.388;13.390;2023-07-20T02:57:10;14.63;92.93
47757;SHT35;22147;52.388;13.390;2023-07-20T02:59:40;14.61;92.97
47757;SHT35;22147;52.388;13.390;2023-07-20T03:02:11;14.60;92.90
47757;SHT35;22147;52.388;13.390;2023-07-20T03:04:41;14.57;92.91
47757;SHT35;22147;52.388;13.390;2023-07-20T03:07:11;14.60;92.98
47757;SHT35;22147;52.388;13.390;2023-07-20T03:09:41;14.63;93.02
47757;SHT35;22147;52.388;13.390;2023-07-20T03:12:11;14.71;92.94
47757;SHT35;22147;52.388;13.390;2023-07-20T03:14:41;14.74;92.94
47757;SHT35;22147;52.388;13.390;2023-07-20T03:17:12;14.79;92.87
47757;SHT35;22147;52.388;13.390;2023-07-20T03:19:42;14.78;92.78
47757;SHT35;22147;52.388;13.390;2023-07-20T03:22:13;14.78;92.74
47757;SHT35;22147;52.388;13.390;2023-07-20T03:24:43;14.81;92.73
47757;SHT35;22147;52.388;13.390;2023-07-20T03:27:13;14.85;92.69
47757;SHT35;22147;52.388;13.390;2023-07-20T03:29:44;14.88;92.61
47757;SHT35;22147;52.388;13.390;2023-07-20T03:32:14;14.91;92.60
47757;SHT35;22147;52.388;13.390;2023-07-20T03:34:44;14.92;92.62
47757;SHT35;22147;52.388;13.390;2023-07-20T03:37:15;14.96;92.61
47757;SHT35;22147;52.388;13.390;2023-07-20T03:39:46;15.00;92.69
47757;SHT35;22147;52.388;13.390;2023-07-20T03:42:16;15.07;92.62
47757;SHT35;22147;52.388;13.390;2023-07-20T03:44:46;15.07;92.58
47757;SHT35;22147;52.388;13.390;2023-07-20T03:47:17;15.07;92.60
47757;SHT35;22147;52.388;13.390;2023-07-20T03:49:47;15.12;92.63
47757;SHT35;22147;52.388;13.390;2023-07-20T03:52:17;15.20;92.65
47757;SHT35;22147;52.388;13.390;2023-07-20T03:54:48;15.23;92.69
47757;SHT35;22147;52.388;13.390;2023-07-20T03:57:18;15.32;92.70
47757;SHT35;22147;52.388;13.390;2023-07-20T03:59:48;15.39;92.70
47757;SHT35;22147;52.388;13.390;2023-07-20T04:02:19;15.40;92.55
47757;SHT35;22147;52.388;13.390;2023-07-20T04:04:49;15.44;92.47
47757;SHT35;22147;52.388;13.390;2023-07-20T04:07:19;15.44;92.38
47757;SHT35;22147;52.388;13.390;2023-07-20T04:09:49;15.44;92.38
47757;SHT35;22147;52.388;13.390;2023-07-20T04:12:18;15.47;92.29
47757;SHT35;22147;52.388;13.390;2023-07-20T04:14:46;15.47;92.18
47757;SHT35;22147;52.388;13.390;2023-07-20T04:17:15;15.46;92.18
47757;SHT35;22147;52.388;13.390;2023-07-20T04:19:43;15.47;92.10
47757;SHT35;22147;52.388;13.390;2023-07-20T04:22:11;15.53;92.02
47757;SHT35;22147;52.388;13.390;2023-07-20T04:24:40;15.51;91.89
47757;SHT35;22147;52.388;13.390;2023-07-20T04:27:08;15.50;91.96
47757;SHT35;22147;52.388;13.390;2023-07-20T04:29:37;15.60;91.77
47757;SHT35;22147;52.388;13.390;2023-07-20T04:32:06;15.61;91.68
47757;SHT35;22147;52.388;13.390;2023-07-20T04:34:36;15.63;91.56
47757;SHT35;22147;52.388;13.390;2023-07-20T04:37:05;15.63;91.65
47757;SHT35;22147;52.388;13.390;2023-07-20T04:39:34;15.63;91.65
47757;SHT35;22147;52.388;13.390;2023-07-20T04:42:03;15.65;91.62
47757;SHT35;22147;52.388;13.390;2023-07-20T04:44:31;15.67;91.53
47757;SHT35;22147;52.388;13.390;2023-07-20T04:46:59;15.70;91.47
47757;SHT35;22147;52.388;13.390;2023-07-20T04:49:27;15.67;91.56
47757;SHT35;22147;52.388;13.390;2023-07-20T04:51:56;15.70;91.55
47757;SHT35;22147;52.388;13.390;2023-07-20T04:54:24;15.75;91.35
47757;SHT35;22147;52.388;13.390;2023-07-20T04:56:57;15.75;91.28
47757;SHT35;22147;52.388;13.390;2023-07-20T04:59:27;15.84;91.33
47757;SHT35;22147;52.388;13.390;2023-07-20T05:01:57;15.88;91.19
47757;SHT35;22147;52.388;13.390;2023-07-20T05:04:27;15.90;90.91
47757;SHT35;22147;52.388;13.390;2023-07-20T05:07:07;15.95;90.38
47757;SHT35;22147;52.388;13.390;2023-07-20T05:09:37;15.98;89.90
47757;SHT35;22147;52.388;13.390;2023-07-20T05:12:07;16.09;89.85
47757;SHT35;22147;52.388;13.390;2023-07-20T05:14:38;16.23;89.71
47757;SHT35;22147;52.388;13.390;2023-07-20T05:17:09;16.36;88.75
47757;SHT35;22147;52.388;13.390;2023-07-20T05:19:39;16.40;88.57
47757;SHT35;22147;52.388;13.390;2023-07-20T05:22:14;16.42;88.33
47757;SHT35;22147;52.388;13.390;2023-07-20T05:24:44;16.44;88.38
47757;SHT35;22147;52.388;13.390;2023-07-20T05:27:14;16.53;88.00
47757;SHT35;22147;52.388;13.390;2023-07-20T05:29:46;16.57;87.61
47757;SHT35;22147;52.388;13.390;2023-07-20T05:32:16;16.57;87.57
47757;SHT35;22147;52.388;13.390;2023-07-20T05:34:46;16.64;87.71
47757;SHT35;22147;52.388;13.390;2023-07-20T05:37:16;16.70;87.14
47757;SHT35;22147;52.388;13.390;2023-07-20T05:39:47;16.70;86.47
47757;SHT35;22147;52.388;13.390;2023-07-20T05:42:17;16.71;85.46
47757;SHT35;22147;52.388;13.390;2023-07-20T05:44:48;16.74;85.31
47757;SHT35;22147;52.388;13.390;2023-07-20T05:47:19;16.77;84.77
47757;SHT35;22147;52.388;13.390;2023-07-20T05:49:49;16.85;85.11
47757;SHT35;22147;52.388;13.390;2023-07-20T05:52:20;17.02;84.90
47757;SHT35;22147;52.388;13.390;2023-07-20T05:54:50;17.15;84.81
47757;SHT35;22147;52.388;13.390;2023-07-20T05:57:20;17.11;82.80
47757;SHT35;22147;52.388;13.390;2023-07-20T05:59:51;17.07;82.92
47757;SHT35;22147;52.388;13.390;2023-07-20T06:02:21;17.05;82.55
47757;SHT35;22147;52.388;13.390;2023-07-20T06:04:51;17.08;83.11
47757;SHT35;22147;52.388;13.390;2023-07-20T06:07:21;17.01;82.62
47757;SHT35;22147;52.388;13.390;2023-07-20T06:09:50;17.00;83.32
47757;SHT35;22147;52.388;13.390;2023-07-20T06:12:18;16.95;83.19
47757;SHT35;22147;52.388;13.390;2023-07-20T06:14:47;17.00;83.63
47757;SHT35;22147;52.388;13.390;2023-07-20T06:17:15;17.14;84.17
47757;SHT35;22147;52.388;13.390;2023-07-20T06:19:43;17.34;82.68
47757;SHT35;22147;52.388;13.390;2023-07-20T06:22:12;17.40;82.63
47757;SHT35;22147;52.388;13.390;2023-07-20T06:24:40;17.73;82.25
47757;SHT35;22147;52.388;13.390;2023-07-20T06:27:09;18.17;80.62
47757;SHT35;22147;52.388;13.390;2023-07-20T06:29:37;18.28;79.40
47757;SHT35;22147;52.388;13.390;2023-07-20T06:32:07;18.17;79.14
47757;SHT35;22147;52.388;13.390;2023-07-20T06:34:37;17.88;79.67
47757;SHT35;22147;52.388;13.390;2023-07-20T06:37:05;17.81;80.53
47757;SHT35;22147;52.388;13.390;2023-07-20T06:39:34;17.73;80.69
47757;SHT35;22147;52.388;13.390;2023-07-20T06:42:07;17.65;80.42
47757;SHT35;22147;52.388;13.390;2023-07-20T06:44:37;17.65;81.16
47757;SHT35;22147;52.388;13.390;2023-07-20T06:47:07;17.77;80.32
47757;SHT35;22147;52.388;13.390;2023-07-20T06:49:38;17.73;79.21
47757;SHT35;22147;52.388;13.390;2023-07-20T06:52:08;17.65;79.65
47757;SHT35;22147;52.388;13.390;2023-07-20T06:54:38;17.62;79.66
47757;SHT35;22147;52.388;13.390;2023-07-20T06:57:13;17.88;80.13
47757;SHT35;22147;52.388;13.390;2023-07-20T06:59:49;18.39;78.44
47757;SHT35;22147;52.388;13.390;2023-07-20T07:02:19;18.90;76.58
47757;SHT35;22147;52.388;13.390;2023-07-20T07:04:49;19.24;73.38
47757;SHT35;22147;52.388;13.390;2023-07-20T07:07:29;19.21;73.05
47757;SHT35;22147;52.388;13.390;2023-07-20T07:10:02;19.24;70.85
47757;SHT35;22147;52.388;13.390;2023-07-20T07:12:35;19.03;71.48
47757;SHT35;22147;52.388;13.390;2023-07-20T07:15:10;18.82;72.50
47757;SHT35;22147;52.388;13.390;2023-07-20T07:17:40;18.71;73.57
47757;SHT35;22147;52.388;13.390;2023-07-20T07:20:11;18.82;73.23
47757;SHT35;22147;52.388;13.390;2023-07-20T07:22:50;18.90;72.86
47757;SHT35;22147;52.388;13.390;2023-07-20T07:25:22;19.14;71.68
47757;SHT35;22147;52.388;13.390;2023-07-20T07:27:54;19.00;71.04
47757;SHT35;22147;52.388;13.390;2023-07-20T07:30:25;18.69;72.25
47757;SHT35;22147;52.388;13.390;2023-07-20T07:32:56;18.71;72.25
47757;SHT35;22147;52.388;13.390;2023-07-20T07:35:26;18.86;72.87
47757;SHT35;22147;52.388;13.390;2023-07-20T07:37:56;19.06;72.49
47757;SHT35;22147;52.388;13.390;2023-07-20T07:40:42;19.13;69.84
47757;SHT35;22147;52.388;13.390;2023-07-20T07:43:12;19.17;69.65
47757;SHT35;22147;52.388;13.390;2023-07-20T07:45:46;19.32;68.73
47757;SHT35;22147;52.388;13.390;2023-07-20T07:48:16;19.38;68.12
47757;SHT35;22147;52.388;13.390;2023-07-20T07:50:47;19.34;68.08
47757;SHT35;22147;52.388;13.390;2023-07-20T07:53:17;19.15;67.78
47757;SHT35;22147;52.388;13.390;2023-07-20T07:55:48;19.15;68.61
47757;SHT35;22147;52.388;13.390;2023-07-20T07:58:19;19.24;68.69
47757;SHT35;22147;52.388;13.390;2023-07-20T08:00:49;19.44;69.49
47757;SHT35;22147;52.388;13.390;2023-07-20T08:03:19;19.68;68.76
47757;SHT35;22147;52.388;13.390;2023-07-20T08:05:50;19.86;66.05
47757;SHT35;22147;52.388;13.390;2023-07-20T08:08:21;20.03;66.59
47757;SHT35;22147;52.388;13.390;2023-07-20T08:10:54;20.09;66.17
47757;SHT35;22147;52.388;13.390;2023-07-20T08:13:24;20.00;63.98
47757;SHT35;22147;52.388;13.390;2023-07-20T08:15:53;19.99;63.49
47757;SHT35;22147;52.388;13.390;2023-07-20T08:18:21;20.05;66.15
47757;SHT35;22147;52.388;13.390;2023-07-20T08:20:50;20.06;65.49
47757;SHT35;22147;52.388;13.390;2023-07-20T08:23:19;19.92;65.76
47757;SHT35;22147;52.388;13.390;2023-07-20T08:25:47;19.71;66.75
47757;SHT35;22147;52.388;13.390;2023-07-20T08:28:16;19.27;66.76
47757;SHT35;22147;52.388;13.390;2023-07-20T08:30:49;19.08;66.91
47757;SHT35;22147;52.388;13.390;2023-07-20T08:33:20;19.42;64.65
47757;SHT35;22147;52.388;13.390;2023-07-20T08:35:50;19.83;64.53
47757;SHT35;22147;52.388;13.390;2023-07-20T08:38:21;20.52;62.94
47757;SHT35;22147;52.388;13.390;2023-07-20T08:40:53;20.75;61.43
47757;SHT35;22147;52.388;13.390;2023-07-20T08:43:29;20.82;61.42
47757;SHT35;22147;52.388;13.390;2023-07-20T08:46:01;20.57;61.14
47757;SHT35;22147;52.388;13.390;2023-07-20T08:48:33;20.43;62.50
47757;SHT35;22147;52.388;13.390;2023-07-20T08:51:04;20.31;62.45
47757;SHT35;22147;52.388;13.390;2023-07-20T08:53:35;20.55;63.60
47757;SHT35;22147;52.388;13.390;2023-07-20T08:56:09;20.81;61.38
47757;SHT35;22147;52.388;13.390;2023-07-20T08:58:44;20.71;60.74
47757;SHT35;22147;52.388;13.390;2023-07-20T09:01:15;20.29;60.75
47757;SHT35;22147;52.388;13.390;2023-07-20T09:03:48;20.21;62.52
47757;SHT35;22147;52.388;13.390;2023-07-20T09:06:19;20.77;60.33
47757;SHT35;22147;52.388;13.390;2023-07-20T09:08:49;21.19;60.21
47757;SHT35;22147;52.388;13.390;2023-07-20T09:11:20;21.19;59.25
47757;SHT35;22147;52.388;13.390;2023-07-20T09:14:06;20.78;60.71
47757;SHT35;22147;52.388;13.390;2023-07-20T09:16:56;20.72;61.83
47757;SHT35;22147;52.388;13.390;2023-07-20T09:19:26;21.22;60.59
47757;SHT35;22147;52.388;13.390;2023-07-20T09:21:56;21.29;58.78
47757;SHT35;22147;52.388;13.390;2023-07-20T09:24:29;20.96;60.26
47757;SHT35;22147;52.388;13.390;2023-07-20T09:27:02;20.88;60.26
47757;SHT35;22147;52.388;13.390;2023-07-20T09:29:56;20.65;61.57
47757;SHT35;22147;52.388;13.390;2023-07-20T09:32:26;20.43;60.54
47757;SHT35;22147;52.388;13.390;2023-07-20T09:34:56;20.45;60.08
47757;SHT35;22147;52.388;13.390;2023-07-20T09:38:00;20.81;61.84
47757;SHT35;22147;52.388;13.390;2023-07-20T09:40:38;21.00;58.07
47757;SHT35;22147;52.388;13.390;2023-07-20T09:43:16;21.18;59.41
47757;SHT35;22147;52.388;13.390;2023-07-20T09:45:50;21.50;59.92
47757;SHT35;22147;52.388;13.390;2023-07-20T09:48:25;21.94;59.62
47757;SHT35;22147;52.388;13.390;2023-07-20T09:50:59;22.48;54.52
47757;SHT35;22147;52.388;13.390;2023-07-20T09:53:33;22.32;54.40
47757;SHT35;22147;52.388;13.390;2023-07-20T09:56:04;22.05;54.48
47757;SHT35;22147;52.388;13.390;2023-07-20T09:58:36;21.73;54.90
47757;SHT35;22147;52.388;13.390;2023-07-20T10:01:12;21.42;55.70
47757;SHT35;22147;52.388;13.390;2023-07-20T10:03:46;21.49;55.71
47757;SHT35;22147;52.388;13.390;2023-07-20T10:06:24;21.42;56.39
47757;SHT35;22147;52.388;13.390;2023-07-20T10:09:02;21.44;56.46
47757;SHT35;22147;52.388;13.390;2023-07-20T10:11:38;21.44;56.50
47757;SHT35;22147;52.388;13.390;2023-07-20T10:14:19;21.50;54.99
47757;SHT35;22147;52.388;13.390;2023-07-20T10:16:53;21.26;55.77
47757;SHT35;22147;52.388;13.390;2023-07-20T10:19:47;21.22;55.58
47757;SHT35;22147;52.388;13.390;2023-07-20T10:22:35;21.22;55.47
47757;SHT35;22147;52.388;13.390;2023-07-20T10:25:12;21.32;55.90
47757;SHT35;22147;52.388;13.390;2023-07-20T10:27:44;21.54;55.30
47757;SHT35;22147;52.388;13.390;2023-07-20T10:30:18;21.75;54.94
47757;SHT35;22147;52.388;13.390;2023-07-20T10:32:52;21.74;55.01
47757;SHT35;22147;52.388;13.390;2023-07-20T10:35:23;21.75;55.88
47757;SHT35;22147;52.388;13.390;2023-07-20T10:38:00;21.69;56.17
47757;SHT35;22147;52.388;13.390;2023-07-20T10:40:38;21.67;55.19
47757;SHT35;22147;52.388;13.390;2023-07-20T10:43:10;21.87;55.52
47757;SHT35;22147;52.388;13.390;2023-07-20T10:45:53;22.08;54.85
47757;SHT35;22147;52.388;13.390;2023-07-20T10:48:25;22.05;53.79
47757;SHT35;22147;52.388;13.390;2023-07-20T10:51:20;22.00;54.15
47757;SHT35;22147;52.388;13.390;2023-07-20T10:53:51;21.81;54.69
47757;SHT35;22147;52.388;13.390;2023-07-20T10:56:27;21.64;55.01
47757;SHT35;22147;52.388;13.390;2023-07-20T10:59:00;21.27;56.44
47757;SHT35;22147;52.388;13.390;2023-07-20T11:01:36;20.96;57.32
47757;SHT35;22147;52.388;13.390;2023-07-20T11:04:08;20.69;57.97
47757;SHT35;22147;52.388;13.390;2023-07-20T11:06:43;20.65;57.90
47757;SHT35;22147;52.388;13.390;2023-07-20T11:09:15;20.51;58.39
47757;SHT35;22147;52.388;13.390;2023-07-20T11:11:48;20.40;58.75
47757;SHT35;22147;52.388;13.390;2023-07-20T11:14:26;20.29;59.90
47757;SHT35;22147;52.388;13.390;2023-07-20T11:17:15;20.24;61.60
47757;SHT35;22147;52.388;13.390;2023-07-20T11:19:50;20.17;61.43
47757;SHT35;22147;52.388;13.390;2023-07-20T11:22:31;20.05;61.44
47757;SHT35;22147;52.388;13.390;2023-07-20T11:25:01;19.86;61.10
47757;SHT35;22147;52.388;13.390;2023-07-20T11:27:31;19.69;61.05
47757;SHT35;22147;52.388;13.390;2023-07-20T11:30:00;19.65;60.40
47757;SHT35;22147;52.388;13.390;2023-07-20T11:32:28;19.57;61.61
47757;SHT35;22147;52.388;13.390;2023-07-20T11:34:58;19.61;62.56
47757;SHT35;22147;52.388;13.390;2023-07-20T11:37:29;19.55;63.43
47757;SHT35;22147;52.388;13.390;2023-07-20T11:39:59;19.54;64.46
47757;SHT35;22147;52.388;13.390;2023-07-20T11:42:27;19.52;64.79
47757;SHT35;22147;52.388;13.390;2023-07-20T11:45:05;19.61;64.34
47757;SHT35;22147;52.388;13.390;2023-07-20T11:47:40;19.66;63.50
47757;SHT35;22147;52.388;13.390;2023-07-20T11:50:12;19.86;63.44
47757;SHT35;22147;52.388;13.390;2023-07-20T11:52:44;20.03;62.57
47757;SHT35;22147;52.388;13.390;2023-07-20T11:55:14;20.47;63.47
47757;SHT35;22147;52.388;13.390;2023-07-20T11:58:05;20.92;61.75
47757;SHT35;22147;52.388;13.390;2023-07-20T12:00:38;21.08;59.84
47757;SHT35;22147;52.388;13.390;2023-07-20T12:03:09;21.12;59.46
47757;SHT35;22147;52.388;13.390;2023-07-20T12:05:41;21.19;58.66
47757;SHT35;22147;52.388;13.390;2023-07-20T12:08:29;21.20;58.17
47757;SHT35;22147;52.388;13.390;2023-07-20T12:10:59;21.08;58.39
47757;SHT35;22147;52.388;13.390;2023-07-20T12:13:42;20.96;58.82
47757;SHT35;22147;52.388;13.390;2023-07-20T12:16:16;20.94;59.89
47757;SHT35;22147;52.388;13.390;2023-07-20T12:18:47;21.16;59.21
47757;SHT35;22147;52.388;13.390;2023-07-20T12:21:19;21.20;58.77
47757;SHT35;22147;52.388;13.390;2023-07-20T12:23:49;21.08;59.81
47757;SHT35;22147;52.388;13.390;2023-07-20T12:26:20;20.99;59.99
47757;SHT35;22147;52.388;13.390;2023-07-20T12:28:53;21.12;58.95
47757;SHT35;22147;52.388;13.390;2023-07-20T12:31:23;21.19;59.28
47757;SHT35;22147;52.388;13.390;2023-07-20T12:33:56;21.36;58.66
47757;SHT35;22147;52.388;13.390;2023-07-20T12:36:27;21.37;57.42
47757;SHT35;22147;52.388;13.390;2023-07-20T12:38:57;21.40;56.15
47757;SHT35;22147;52.388;13.390;2023-07-20T12:41:28;21.18;56.57
47757;SHT35;22147;52.388;13.390;2023-07-20T12:43:58;21.30;55.94
47757;SHT35;22147;52.388;13.390;2023-07-20T12:46:28;21.73;57.25
47757;SHT35;22147;52.388;13.390;2023-07-20T12:48:59;22.21;56.52
47757;SHT35;22147;52.388;13.390;2023-07-20T12:51:29;22.20;54.30
47757;SHT35;22147;52.388;13.390;2023-07-20T12:53:59;21.92;54.36
47757;SHT35;22147;52.388;13.390;2023-07-20T12:56:28;21.81;55.12
47757;SHT35;22147;52.388;13.390;2023-07-20T12:59:00;21.85;54.32
47757;SHT35;22147;52.388;13.390;2023-07-20T13:01:31;21.75;55.28
47757;SHT35;22147;52.388;13.390;2023-07-20T13:04:00;21.50;55.06
47757;SHT35;22147;52.388;13.390;2023-07-20T13:06:33;21.32;56.19
47757;SHT35;22147;52.388;13.390;2023-07-20T13:09:06;21.60;56.11
47757;SHT35;22147;52.388;13.390;2023-07-20T13:11:36;21.88;53.59
47757;SHT35;22147;52.388;13.390;2023-07-20T13:14:06;22.04;52.24
47757;SHT35;22147;52.388;13.390;2023-07-20T13:16:36;22.12;52.86
47757;SHT35;22147;52.388;13.390;2023-07-20T13:19:05;22.32;52.36
47757;SHT35;22147;52.388;13.390;2023-07-20T13:21:35;22.24;52.47
47757;SHT35;22147;52.388;13.390;2023-07-20T13:24:08;22.10;52.81
47757;SHT35;22147;52.388;13.390;2023-07-20T13:26:37;22.17;50.85
47757;SHT35;22147;52.388;13.390;2023-07-20T13:29:06;22.52;50.88
47757;SHT35;22147;52.388;13.390;2023-07-20T13:31:37;22.45;48.94
47757;SHT35;22147;52.388;13.390;2023-07-20T13:34:10;22.50;49.92
47757;SHT35;22147;52.388;13.390;2023-07-20T13:36:41;22.50;49.25
47757;SHT35;22147;52.388;13.390;2023-07-20T13:39:13;22.62;50.24
47757;SHT35;22147;52.388;13.390;2023-07-20T13:41:43;22.91;50.98
47757;SHT35;22147;52.388;13.390;2023-07-20T13:44:12;23.18;48.57
47757;SHT35;22147;52.388;13.390;2023-07-20T13:46:47;23.21;47.08
47757;SHT35;22147;52.388;13.390;2023-07-20T13:49:18;23.26;47.19
47757;SHT35;22147;52.388;13.390;2023-07-20T13:51:52;23.49;46.97
47757;SHT35;22147;52.388;13.390;2023-07-20T13:54:26;23.69;45.07
47757;SHT35;22147;52.388;13.390;2023-07-20T13:56:56;23.89;45.03
47757;SHT35;22147;52.388;13.390;2023-07-20T13:59:25;24.00;45.36
47757;SHT35;22147;52.388;13.390;2023-07-20T14:01:53;23.93;44.54
47757;SHT35;22147;52.388;13.390;2023-07-20T14:04:43;23.86;43.37
47757;SHT35;22147;52.388;13.390;2023-07-20T14:07:13;23.59;43.96
47757;SHT35;22147;52.388;13.390;2023-07-20T14:09:45;23.38;45.10
47757;SHT35;22147;52.388;13.390;2023-07-20T14:12:18;23.21;45.44
47757;SHT35;22147;52.388;13.390;2023-07-20T14:14:49;23.18;44.96
47757;SHT35;22147;52.388;13.390;2023-07-20T14:17:19;23.51;44.14
47757;SHT35;22147;52.388;13.390;2023-07-20T14:19:49;23.92;44.57
47757;SHT35;22147;52.388;13.390;2023-07-20T14:22:19;24.39;43.61
47757;SHT35;22147;52.388;13.390;2023-07-20T14:24:49;24.89;42.59
47757;SHT35;22147;52.388;13.390;2023-07-20T14:27:19;24.88;40.75
47757;SHT35;22147;52.388;13.390;2023-07-20T14:29:49;24.72;42.36
47757;SHT35;22147;52.388;13.390;2023-07-20T14:32:19;24.45;43.51
47757;SHT35;22147;52.388;13.390;2023-07-20T14:34:49;24.63;41.11
47757;SHT35;22147;52.388;13.390;2023-07-20T14:37:19;24.96;40.48
47757;SHT35;22147;52.388;13.390;2023-07-20T14:39:51;25.02;38.77
47757;SHT35;22147;52.388;13.390;2023-07-20T14:42:22;25.20;37.35
47757;SHT35;22147;52.388;13.390;2023-07-20T14:44:52;25.05;37.60
47757;SHT35;22147;52.388;13.390;2023-07-20T14:47:21;25.19;37.76
47757;SHT35;22147;52.388;13.390;2023-07-20T14:49:51;25.01;38.04
47757;SHT35;22147;52.388;13.390;2023-07-20T14:52:21;24.85;37.75
47757;SHT35;22147;52.388;13.390;2023-07-20T14:54:51;24.84;39.09
47757;SHT35;22147;52.388;13.390;2023-07-20T14:57:21;24.94;36.89
47757;SHT35;22147;52.388;13.390;2023-07-20T14:59:53;25.07;38.44
47757;SHT35;22147;52.388;13.390;2023-07-20T15:02:23;25.18;37.90
47757;SHT35;22147;52.388;13.390;2023-07-20T15:04:53;25.08;37.11
47757;SHT35;22147;52.388;13.390;2023-07-20T15:07:23;25.08;37.47
47757;SHT35;22147;52.388;13.390;2023-07-20T15:09:53;25.14;37.62
47757;SHT35;22147;52.388;13.390;2023-07-20T15:12:23;25.22;36.77
47757;SHT35;22147;52.388;13.390;2023-07-20T15:15:15;25.77;35.37
47757;SHT35;22147;52.388;13.390;2023-07-20T15:17:45;25.93;36.64
47757;SHT35;22147;52.388;13.390;2023-07-20T15:20:16;26.13;36.12
47757;SHT35;22147;52.388;13.390;2023-07-20T15:22:46;26.01;35.49
47757;SHT35;22147;52.388;13.390;2023-07-20T15:25:16;25.74;36.26
47757;SHT35;22147;52.388;13.390;2023-07-20T15:27:46;25.56;36.67
47757;SHT35;22147;52.388;13.390;2023-07-20T15:30:19;25.50;37.45
47757;SHT35;22147;52.388;13.390;2023-07-20T15:32:51;25.19;38.50
47757;SHT35;22147;52.388;13.390;2023-07-20T15:35:23;25.05;38.60
47757;SHT35;22147;52.388;13.390;2023-07-20T15:37:52;24.91;38.78
47757;SHT35;22147;52.388;13.390;2023-07-20T15:40:22;24.36;39.13
47757;SHT35;22147;52.388;13.390;2023-07-20T15:42:52;24.03;40.58
47757;SHT35;22147;52.388;13.390;2023-07-20T15:45:22;23.68;40.46
47757;SHT35;22147;52.388;13.390;2023-07-20T15:47:51;23.34;41.93
47757;SHT35;22147;52.388;13.390;2023-07-20T15:50:20;23.52;42.91